Time;durP1;ratioP1;P1;durP2;ratioP2;P2;SDS_P1;SDS_P2;PMS_P1;PMS_P2;Temp;Humidity;BMP_temperature;BMP_pressure;BME280_temperature;BME280_humidity;BME280_pressure;Samples;Min_cycle;Max_cycle;Signal;HPM_P1;HPM_P2
2023/01/06 00:02:05;;;;;;;23.10;6.33;;;3.80;99.90;;;;;;5266792;28;20211;-48
2023/01/06 00:04:35;;;;;;;12.80;3.30;;;3.90;99.90;;;;;;5260164;28;20232;-49
2023/01/06 00:07:06;;;;;;;8.57;3.10;;;4.10;99.90;;;;;;5260916;28;20291;-48
2023/01/06 00:09:37;;;;;;;27.50;8.83;;;4.10;99.90;;;;;;5256341;28;20222;-49
2023/01/06 00:12:08;;;;;;;16.50;5.13;;;4.20;99.90;;;;;;5258144;28;20214;-49
2023/01/06 00:14:41;;;;;;;19.63;6.07;;;4.30;99.90;;;;;;5256786;28;20476;-48
2023/01/06 00:17:12;;;;;;;15.20;3.80;;;4.40;99.90;;;;;;5253267;28;20401;-48
2023/01/06 00:19:43;;;;;;;14.53;2.73;;;4.50;99.90;;;;;;5258519;28;20528;-50
2023/01/06 00:22:14;;;;;;;15.73;5.40;;;4.60;99.90;;;;;;5266019;28;20907;-50
2023/01/06 00:24:44;;;;;;;60.70;17.97;;;4.70;99.90;;;;;;5259313;28;20267;-48
2023/01/06 00:27:15;;;;;;;44.87;10.43;;;4.60;99.90;;;;;;5254792;28;20243;-50
2023/01/06 00:29:48;;;;;;;58.07;15.60;;;4.60;99.90;;;;;;5254071;28;20202;-48
2023/01/06 00:32:19;;;;;;;48.23;11.93;;;4.60;99.90;;;;;;5263455;28;20192;-52
2023/01/06 00:34:49;;;;;;;43.27;14.90;;;4.60;99.90;;;;;;5263728;28;20472;-49
2023/01/06 00:37:20;;;;;;;19.90;8.33;;;4.70;99.90;;;;;;5258637;28;20252;-48
2023/01/06 00:39:50;;;;;;;4.70;1.60;;;4.70;99.90;;;;;;5265425;28;20185;-48
2023/01/06 00:42:23;;;;;;;7.80;2.07;;;4.70;99.90;;;;;;5268382;28;20213;-47
2023/01/06 00:44:54;;;;;;;5.47;3.13;;;4.70;99.90;;;;;;5255000;28;20181;-50
2023/01/06 00:47:24;;;;;;;5.23;2.60;;;4.70;99.90;;;;;;5256823;28;21013;-50
2023/01/06 00:49:55;;;;;;;3.33;2.80;;;4.70;99.90;;;;;;5261028;28;20191;-46
2023/01/06 00:52:25;;;;;;;3.93;2.57;;;4.70;99.90;;;;;;5270336;28;20183;-48
2023/01/06 00:54:56;;;;;;;4.60;2.53;;;4.80;99.90;;;;;;5271933;28;20201;-47
2023/01/06 00:57:27;;;;;;;5.07;2.83;;;4.70;99.90;;;;;;5259152;28;20227;-47
2023/01/06 00:59:57;;;;;;;9.93;2.90;;;4.70;99.90;;;;;;5258360;28;20288;-48
2023/01/06 01:02:28;;;;;;;6.90;2.70;;;4.60;99.90;;;;;;5257003;28;20274;-47
2023/01/06 01:04:59;;;;;;;7.97;2.97;;;4.60;99.90;;;;;;5263267;28;20547;-48
2023/01/06 01:07:29;;;;;;;4.17;2.33;;;4.60;99.90;;;;;;5265956;28;20195;-48
2023/01/06 01:10:00;;;;;;;8.23;2.57;;;4.70;99.90;;;;;;5265689;28;20241;-47
2023/01/06 01:12:30;;;;;;;7.70;2.00;;;4.50;99.90;;;;;;5261299;28;20195;-47
2023/01/06 01:15:01;;;;;;;3.67;1.77;;;4.60;99.90;;;;;;5261120;28;20188;-49
2023/01/06 01:17:32;;;;;;;4.80;2.07;;;4.50;99.90;;;;;;5265620;28;20180;-48
2023/01/06 01:20:02;;;;;;;4.50;2.87;;;4.50;99.90;;;;;;5256267;28;20231;-48
2023/01/06 01:22:33;;;;;;;3.20;2.10;;;4.50;99.90;;;;;;5264965;28;20346;-48
2023/01/06 01:25:04;;;;;;;7.50;2.43;;;4.50;99.90;;;;;;5261843;28;20211;-48
2023/01/06 01:27:35;;;;;;;4.87;2.50;;;4.40;99.90;;;;;;5263825;28;20717;-49
2023/01/06 01:30:06;;;;;;;7.17;3.60;;;4.50;99.90;;;;;;5261339;28;20438;-52
2023/01/06 01:32:36;;;;;;;4.20;2.57;;;4.40;99.90;;;;;;5255841;28;20183;-49
2023/01/06 01:35:07;;;;;;;4.13;2.00;;;4.30;99.90;;;;;;5260939;28;20468;-47
2023/01/06 01:37:38;;;;;;;3.83;1.97;;;4.40;99.90;;;;;;5268488;28;20297;-48
2023/01/06 01:40:09;;;;;;;3.70;2.30;;;4.40;99.90;;;;;;5257731;28;20845;-48
2023/01/06 01:42:40;;;;;;;10.93;2.80;;;4.50;99.90;;;;;;5268868;28;20276;-50
2023/01/06 01:45:28;;;;;;;3.20;2.10;;;4.40;99.90;;;;;;5253217;28;20516;-49
2023/01/06 01:48:06;;;;;;;5.70;2.30;;;4.40;99.90;;;;;;5261259;28;20199;-48
2023/01/06 01:50:45;;;;;;;6.40;2.87;;;4.40;99.90;;;;;;5260519;28;20461;-48
2023/01/06 01:53:21;;;;;;;10.87;4.10;;;4.50;99.90;;;;;;5268292;28;20715;-48
2023/01/06 01:55:54;;;;;;;12.03;3.47;;;4.50;99.90;;;;;;5263977;28;20513;-49
2023/01/06 01:58:28;;;;;;;11.53;5.20;;;4.60;99.90;;;;;;5263642;28;20837;-49
2023/01/06 02:00:59;;;;;;;12.57;5.87;;;4.60;99.90;;;;;;5257441;28;20471;-51
2023/01/06 02:03:30;;;;;;;16.87;6.10;;;4.70;99.90;;;;;;5255842;28;20499;-49
2023/01/06 02:06:04;;;;;;;12.10;3.63;;;4.70;99.90;;;;;;5268445;28;20648;-50
2023/01/06 02:08:36;;;;;;;6.43;2.90;;;4.70;99.90;;;;;;5282019;28;20265;-49
2023/01/06 02:11:08;;;;;;;14.20;3.23;;;4.70;99.90;;;;;;5268649;28;20530;-48
2023/01/06 02:13:41;;;;;;;5.77;2.63;;;4.70;99.90;;;;;;5264428;28;20449;-49
2023/01/06 02:16:38;;;;;;;4.37;1.93;;;4.70;99.90;;;;;;5263679;28;20471;-49
2023/01/06 02:19:33;;;;;;;6.63;3.07;;;4.70;99.90;;;;;;5257177;28;21000;-48
2023/01/06 02:22:24;;;;;;;13.13;3.10;;;4.80;99.90;;;;;;5266316;28;20546;-49
2023/01/06 02:25:16;;;;;;;3.50;2.30;;;4.70;99.90;;;;;;5258855;28;20737;-49
2023/01/06 02:27:50;;;;;;;3.83;1.90;;;4.70;99.90;;;;;;5264303;28;20457;-48
2023/01/06 02:30:30;;;;;;;4.73;2.20;;;4.80;99.90;;;;;;5256071;28;20431;-50
2023/01/06 02:33:26;;;;;;;5.73;1.90;;;4.80;99.90;;;;;;5262773;28;20482;-49
2023/01/06 02:36:09;;;;;;;6.83;2.27;;;4.70;99.90;;;;;;5259754;28;20513;-50
2023/01/06 02:39:17;;;;;;;4.67;1.87;;;4.70;99.90;;;;;;5256177;28;20462;-50
2023/01/06 02:42:12;;;;;;;8.80;1.90;;;4.70;99.90;;;;;;5256174;28;20791;-50
2023/01/06 02:44:54;;;;;;;1.77;1.40;;;4.60;99.90;;;;;;5263884;28;21147;-49
2023/01/06 02:47:51;;;;;;;1.23;1.20;;;4.60;99.90;;;;;;5250118;28;20415;-49
2023/01/06 02:50:34;;;;;;;2.60;1.20;;;4.50;99.90;;;;;;5270095;28;20430;-49
2023/01/06 02:53:33;;;;;;;5.20;1.10;;;4.50;99.90;;;;;;5261740;28;20437;-50
2023/01/06 02:56:05;;;;;;;8.60;1.67;;;4.60;99.90;;;;;;5251027;28;20426;-49
2023/01/06 02:58:50;;;;;;;4.50;1.60;;;4.50;99.90;;;;;;5252447;28;20476;-49
2023/01/06 03:01:46;;;;;;;6.13;1.30;;;4.50;99.90;;;;;;5259362;28;20563;-49
2023/01/06 03:04:25;;;;;;;7.43;1.70;;;4.60;99.90;;;;;;5255236;28;20893;-48
2023/01/06 03:06:57;;;;;;;3.63;1.50;;;4.50;99.90;;;;;;5257003;28;20436;-49
2023/01/06 03:09:33;;;;;;;8.63;1.80;;;4.60;99.90;;;;;;5268582;28;20525;-48
2023/01/06 03:12:17;;;;;;;6.60;1.70;;;4.60;99.90;;;;;;5256933;28;20517;-48
2023/01/06 03:14:51;;;;;;;1.00;1.00;;;4.70;99.90;;;;;;5266462;28;20811;-49
2023/01/06 03:17:23;;;;;;;7.50;1.30;;;4.70;99.90;;;;;;5265303;28;20527;-49
2023/01/06 03:19:53;;;;;;;0.97;0.97;;;4.70;99.90;;;;;;5264015;28;20431;-49
2023/01/06 03:22:24;;;;;;;6.67;1.57;;;4.70;99.90;;;;;;5249947;28;20833;-49
2023/01/06 03:24:55;;;;;;;2.97;1.33;;;4.70;99.90;;;;;;5269161;28;20186;-49
2023/01/06 03:27:26;;;;;;;1.83;1.40;;;4.60;99.90;;;;;;5260256;28;20178;-49
2023/01/06 03:29:57;;;;;;;2.73;1.47;;;4.60;99.90;;;;;;5253428;28;20170;-48
2023/01/06 03:32:36;;;;;;;5.10;1.20;;;4.70;99.90;;;;;;5265145;28;20435;-49
2023/01/06 03:35:27;;;;;;;1.10;1.00;;;4.70;99.90;;;;;;5253983;28;20957;-48
2023/01/06 03:38:06;;;;;;;7.20;1.50;;;4.60;99.90;;;;;;5260304;28;20502;-49
2023/01/06 03:40:49;;;;;;;2.93;1.40;;;4.60;99.90;;;;;;5275105;28;20493;-49
2023/01/06 03:43:41;;;;;;;4.63;1.53;;;4.60;99.90;;;;;;5257159;28;20927;-47
2023/01/06 03:46:44;;;;;;;4.93;1.60;;;4.60;99.90;;;;;;5262039;28;20869;-49
2023/01/06 03:49:24;;;;;;;3.27;1.20;;;4.60;99.90;;;;;;5273337;28;20468;-48
2023/01/06 03:52:00;;;;;;;1.23;1.10;;;4.60;99.90;;;;;;5262622;28;20444;-50
2023/01/06 03:55:02;;;;;;;3.40;0.80;;;4.60;99.90;;;;;;5260919;28;20440;-48
2023/01/06 03:57:36;;;;;;;46.20;25.40;;;4.70;99.90;;;;;;5258134;28;20444;-50
2023/01/06 04:00:28;;;;;;;11.13;6.80;;;4.60;99.90;;;;;;5260877;28;20453;-50
2023/01/06 04:03:00;;;;;;;1.23;1.13;;;4.60;99.90;;;;;;5261480;28;20555;-48
2023/01/06 04:05:31;;;;;;;10.40;1.33;;;4.60;99.90;;;;;;5260030;28;20933;-50
2023/01/06 04:08:01;;;;;;;2.87;1.80;;;4.60;99.90;;;;;;5257232;28;20456;-48
2023/01/06 04:10:32;;;;;;;7.30;1.50;;;4.60;99.90;;;;;;5273924;28;20185;-48
2023/01/06 04:13:02;;;;;;;2.73;1.47;;;4.80;99.90;;;;;;5264109;28;20192;-48
2023/01/06 04:15:33;;;;;;;10.87;7.80;;;4.60;99.90;;;;;;5261551;28;20181;-49
2023/01/06 04:18:04;;;;;;;21.73;10.00;;;4.60;99.90;;;;;;5266460;28;20268;-49
2023/01/06 04:20:34;;;;;;;7.73;3.23;;;4.60;99.90;;;;;;5265026;28;20187;-49
2023/01/06 04:23:05;;;;;;;3.90;1.67;;;4.60;99.90;;;;;;5264622;28;20678;-48
2023/01/06 04:25:36;;;;;;;1.83;1.30;;;4.60;99.90;;;;;;5267661;28;20185;-49
2023/01/06 04:28:06;;;;;;;5.97;1.20;;;4.60;99.90;;;;;;5258268;28;20193;-49
2023/01/06 04:30:37;;;;;;;1.33;1.17;;;4.70;99.90;;;;;;5262106;28;20722;-49
2023/01/06 04:33:07;;;;;;;1.93;1.13;;;4.70;99.90;;;;;;5269339;28;20184;-49
2023/01/06 04:35:38;;;;;;;6.53;1.10;;;4.80;99.90;;;;;;5271783;28;20204;-48
2023/01/06 04:38:09;;;;;;;1.03;0.90;;;4.80;99.90;;;;;;5264676;28;20204;-49
2023/01/06 04:40:41;;;;;;;3.57;1.70;;;4.80;99.90;;;;;;5260346;28;20546;-50
2023/01/06 04:43:17;;;;;;;1.17;1.07;;;4.80;99.90;;;;;;5263857;28;20287;-50
2023/01/06 04:45:48;;;;;;;1.90;0.97;;;4.70;99.90;;;;;;5268666;28;20456;-49
2023/01/06 04:48:19;;;;;;;7.03;1.40;;;4.70;99.90;;;;;;5260953;28;20484;-49
2023/01/06 04:50:58;;;;;;;4.97;1.40;;;4.70;99.90;;;;;;5266253;28;20426;-48
2023/01/06 04:53:28;;;;;;;2.60;1.43;;;4.70;99.90;;;;;;5261815;28;20181;-48
2023/01/06 04:56:05;;;;;;;8.73;1.30;;;4.70;99.90;;;;;;5280409;28;20429;-49
2023/01/06 04:58:36;;;;;;;1.23;0.83;;;4.70;99.90;;;;;;5255067;28;20215;-49
2023/01/06 05:01:10;;;;;;;6.03;1.50;;;4.70;99.90;;;;;;5263291;28;20916;-49
2023/01/06 05:03:41;;;;;;;1.80;1.10;;;4.70;99.90;;;;;;5260028;28;20420;-49
2023/01/06 05:06:12;;;;;;;2.27;1.07;;;4.70;99.90;;;;;;5267358;28;20938;-48
2023/01/06 05:08:44;;;;;;;1.07;1.07;;;4.70;99.90;;;;;;5260401;28;20203;-49
2023/01/06 05:11:17;;;;;;;2.50;1.07;;;4.70;99.90;;;;;;5262320;28;20431;-49
2023/01/06 05:13:48;;;;;;;1.20;1.00;;;4.70;99.90;;;;;;5266784;28;20432;-50
2023/01/06 05:16:28;;;;;;;5.10;1.07;;;4.70;99.90;;;;;;5265352;28;20858;-49
2023/01/06 05:19:00;;;;;;;1.50;1.37;;;4.70;99.90;;;;;;5230745;28;20539;-49
2023/01/06 05:21:30;;;;;;;7.10;1.33;;;4.70;99.90;;;;;;5261250;28;20456;-48
2023/01/06 05:24:01;;;;;;;1.13;1.03;;;4.60;99.90;;;;;;5263128;28;20435;-49
2023/01/06 05:26:32;;;;;;;2.00;1.00;;;4.70;99.90;;;;;;5243643;28;20177;-48
2023/01/06 05:29:02;;;;;;;1.37;1.07;;;4.60;99.90;;;;;;5260005;28;20194;-49
2023/01/06 05:31:33;;;;;;;6.00;1.57;;;4.70;99.90;;;;;;5266889;28;20190;-49
2023/01/06 05:34:03;;;;;;;2.93;1.23;;;4.80;99.90;;;;;;5261771;28;20187;-48
2023/01/06 05:36:34;;;;;;;6.03;1.60;;;4.70;99.90;;;;;;5264051;28;20188;-50
2023/01/06 05:39:05;;;;;;;6.70;1.20;;;4.70;99.90;;;;;;5264871;28;20289;-49
2023/01/06 05:41:35;;;;;;;1.83;1.00;;;4.70;99.90;;;;;;5257419;28;20207;-48
2023/01/06 05:44:06;;;;;;;6.90;1.70;;;4.70;99.90;;;;;;5250667;28;20667;-49
2023/01/06 05:46:37;;;;;;;3.80;1.37;;;4.80;99.90;;;;;;5264648;28;20193;-50
2023/01/06 05:49:08;;;;;;;2.00;1.40;;;4.80;99.90;;;;;;5266375;28;20284;-48
2023/01/06 05:51:38;;;;;;;6.00;2.03;;;4.80;99.90;;;;;;5259995;28;20184;-49
2023/01/06 05:54:09;;;;;;;14.30;2.23;;;4.90;99.90;;;;;;5261652;28;20441;-48
2023/01/06 05:56:40;;;;;;;3.13;1.57;;;4.80;99.90;;;;;;5260546;28;20525;-49
2023/01/06 05:59:10;;;;;;;9.60;2.20;;;4.80;99.90;;;;;;5262891;28;20222;-46
2023/01/06 06:01:41;;;;;;;4.67;2.40;;;4.80;99.90;;;;;;5256204;28;20197;-49
2023/01/06 06:04:12;;;;;;;2.50;2.03;;;4.70;99.90;;;;;;5257858;28;20187;-47
2023/01/06 06:06:42;;;;;;;3.37;2.27;;;4.80;99.90;;;;;;5264470;28;20213;-49
2023/01/06 06:09:13;;;;;;;4.20;1.67;;;4.80;99.90;;;;;;5264678;28;20468;-52
2023/01/06 06:11:44;;;;;;;5.40;1.87;;;4.80;99.90;;;;;;5263574;28;20184;-48
2023/01/06 06:14:14;;;;;;;4.17;1.47;;;4.80;99.90;;;;;;5267169;28;20187;-48
2023/01/06 06:16:45;;;;;;;9.57;2.23;;;4.70;99.90;;;;;;5267299;28;20178;-47
2023/01/06 06:19:15;;;;;;;7.10;1.90;;;4.80;99.90;;;;;;5262178;28;20594;-50
2023/01/06 06:21:46;;;;;;;13.93;2.03;;;4.80;99.90;;;;;;5259073;28;20296;-49
2023/01/06 06:24:17;;;;;;;2.30;1.60;;;4.70;99.90;;;;;;5256207;28;20197;-47
2023/01/06 06:26:47;;;;;;;3.30;1.87;;;4.80;99.90;;;;;;5263373;28;20175;-49
2023/01/06 06:29:18;;;;;;;2.30;2.10;;;4.80;99.90;;;;;;5255645;28;20305;-47
2023/01/06 06:31:49;;;;;;;5.40;2.03;;;4.70;99.90;;;;;;5261831;28;20192;-47
2023/01/06 06:34:19;;;;;;;8.43;2.30;;;4.60;99.90;;;;;;5264122;28;20174;-48
2023/01/06 06:36:50;;;;;;;8.80;2.00;;;4.60;99.90;;;;;;5261944;28;20187;-48
2023/01/06 06:39:21;;;;;;;1.47;1.37;;;4.60;99.90;;;;;;5260620;28;20297;-47
2023/01/06 06:41:51;;;;;;;7.27;2.43;;;4.50;99.90;;;;;;5262860;28;20207;-49
2023/01/06 06:44:22;;;;;;;3.80;1.90;;;4.60;99.90;;;;;;5261842;28;20712;-47
2023/01/06 06:46:52;;;;;;;12.93;3.07;;;4.50;99.90;;;;;;5263678;28;20261;-46
2023/01/06 06:49:23;;;;;;;8.17;2.73;;;4.60;99.90;;;;;;5265619;28;20617;-47
2023/01/06 06:51:54;;;;;;;4.63;2.67;;;4.50;99.90;;;;;;5268413;28;20277;-48
2023/01/06 06:54:24;;;;;;;5.03;2.70;;;4.60;99.90;;;;;;5267239;28;20242;-47
2023/01/06 06:56:55;;;;;;;3.20;3.00;;;4.50;99.90;;;;;;5261932;28;20685;-47
2023/01/06 06:59:26;;;;;;;6.57;2.70;;;4.60;99.90;;;;;;5262246;28;20216;-48
2023/01/06 07:01:57;;;;;;;5.40;3.60;;;4.50;99.90;;;;;;5238137;28;20986;-48
2023/01/06 07:04:27;;;;;;;4.23;3.00;;;4.60;99.90;;;;;;5261800;28;20187;-50
2023/01/06 07:06:58;;;;;;;9.77;3.93;;;4.70;99.90;;;;;;5263418;28;20177;-48
2023/01/06 07:09:28;;;;;;;12.57;3.93;;;4.80;99.90;;;;;;5248313;28;20202;-49
2023/01/06 07:11:59;;;;;;;8.03;2.83;;;4.80;99.90;;;;;;5254806;28;20553;-51
2023/01/06 07:14:30;;;;;;;17.70;4.17;;;4.80;99.90;;;;;;5258078;28;20197;-50
2023/01/06 07:17:01;;;;;;;11.13;3.97;;;5.00;99.90;;;;;;5253017;28;20998;-50
2023/01/06 07:19:31;;;;;;;6.93;3.53;;;4.90;99.90;;;;;;5256922;28;20296;-49
2023/01/06 07:22:02;;;;;;;12.03;2.77;;;5.00;99.90;;;;;;5256156;28;20203;-48
2023/01/06 07:24:32;;;;;;;6.47;3.80;;;5.00;99.90;;;;;;5258208;28;20270;-48
2023/01/06 07:27:03;;;;;;;7.50;3.60;;;5.00;99.90;;;;;;5256262;28;20230;-49
2023/01/06 07:29:34;;;;;;;18.40;4.57;;;5.00;99.90;;;;;;5261686;28;20578;-49
2023/01/06 07:32:04;;;;;;;11.03;4.80;;;5.10;99.90;;;;;;5256125;28;20269;-47
2023/01/06 07:34:35;;;;;;;8.77;4.50;;;5.10;99.90;;;;;;5253305;28;20210;-49
2023/01/06 07:37:06;;;;;;;6.33;4.10;;;5.10;99.90;;;;;;5259000;28;20192;-53
2023/01/06 07:39:36;;;;;;;5.67;4.93;;;5.10;99.90;;;;;;5258777;28;20212;-50
2023/01/06 07:42:08;;;;;;;5.47;4.07;;;5.10;99.90;;;;;;5242043;28;20291;-51
2023/01/06 07:44:39;;;;;;;12.67;4.63;;;5.10;99.90;;;;;;5258418;28;20200;-51
2023/01/06 07:47:09;;;;;;;10.17;4.87;;;5.20;99.90;;;;;;5255004;28;20634;-49
2023/01/06 07:49:40;;;;;;;6.00;4.70;;;5.30;99.90;;;;;;5255274;28;20638;-49
2023/01/06 07:52:11;;;;;;;9.57;5.67;;;5.20;99.90;;;;;;5260794;28;20196;-48
2023/01/06 07:54:41;;;;;;;5.83;4.57;;;5.20;99.90;;;;;;5260510;28;20188;-49
2023/01/06 07:57:12;;;;;;;5.43;5.03;;;5.20;99.90;;;;;;5263556;28;20609;-47
2023/01/06 07:59:42;;;;;;;9.27;5.60;;;5.30;99.90;;;;;;5255186;28;20246;-50
2023/01/06 08:02:13;;;;;;;11.73;6.00;;;5.30;99.90;;;;;;5256983;28;20205;-48
2023/01/06 08:04:44;;;;;;;13.70;5.80;;;5.20;99.90;;;;;;5256200;28;20191;-49
2023/01/06 08:07:15;;;;;;;17.10;6.17;;;5.20;99.90;;;;;;5251896;28;20192;-49
2023/01/06 08:09:46;;;;;;;12.70;7.43;;;5.30;99.90;;;;;;5260854;28;20726;-52
2023/01/06 08:12:17;;;;;;;16.80;6.93;;;5.20;99.90;;;;;;5254840;28;20532;-49
2023/01/06 08:14:47;;;;;;;13.27;7.70;;;5.30;99.90;;;;;;5258498;28;20179;-48
2023/01/06 08:17:18;;;;;;;15.13;8.03;;;5.20;99.90;;;;;;5255580;28;21314;-51
2023/01/06 08:19:49;;;;;;;15.60;7.63;;;5.30;99.90;;;;;;5252838;28;20199;-51
2023/01/06 08:22:19;;;;;;;17.30;8.93;;;5.30;99.90;;;;;;5227328;28;20205;-50
2023/01/06 08:24:50;;;;;;;14.30;8.93;;;5.40;99.90;;;;;;5258372;28;20422;-49
2023/01/06 08:27:21;;;;;;;18.70;8.43;;;5.40;99.90;;;;;;5255634;28;20191;-51
2023/01/06 08:29:53;;;;;;;22.10;8.50;;;5.30;99.90;;;;;;5259713;28;20180;-50
2023/01/06 08:32:24;;;;;;;20.90;9.90;;;5.40;99.90;;;;;;5257032;28;20192;-51
2023/01/06 08:34:54;;;;;;;15.73;9.30;;;5.40;99.90;;;;;;5257215;28;20759;-50
2023/01/06 08:37:25;;;;;;;21.03;10.23;;;5.40;99.90;;;;;;5259381;28;20247;-49
2023/01/06 08:39:56;;;;;;;18.83;8.87;;;5.40;99.90;;;;;;5254746;28;20176;-50
2023/01/06 08:42:26;;;;;;;22.93;9.93;;;5.40;99.90;;;;;;5253639;28;20209;-50
2023/01/06 08:44:57;;;;;;;16.83;9.70;;;5.40;99.90;;;;;;5254097;28;20196;-47
2023/01/06 08:47:27;;;;;;;12.53;9.60;;;5.40;99.90;;;;;;5253328;28;20194;-52
2023/01/06 08:49:58;;;;;;;17.20;9.07;;;5.50;99.90;;;;;;5252446;28;20205;-52
2023/01/06 08:52:29;;;;;;;14.13;8.80;;;5.50;99.90;;;;;;5242134;28;20196;-50
2023/01/06 08:54:59;;;;;;;16.80;10.03;;;5.50;99.90;;;;;;5254439;28;20257;-52
2023/01/06 08:57:30;;;;;;;19.67;11.30;;;5.50;99.90;;;;;;5255241;28;20609;-49
2023/01/06 09:00:02;;;;;;;15.10;9.70;;;5.60;99.90;;;;;;5257800;28;20197;-50
2023/01/06 09:02:32;;;;;;;20.70;9.93;;;5.60;99.90;;;;;;5256482;28;20213;-50
2023/01/06 09:05:04;;;;;;;24.47;11.00;;;5.60;99.90;;;;;;5250349;28;21011;-51
2023/01/06 09:07:35;;;;;;;34.70;12.03;;;5.70;99.90;;;;;;5251697;28;20188;-48
2023/01/06 09:10:06;;;;;;;23.40;11.37;;;5.60;99.90;;;;;;5254897;28;20484;-50
2023/01/06 09:12:38;;;;;;;15.33;9.90;;;5.70;99.90;;;;;;5258175;28;20190;-51
2023/01/06 09:15:09;;;;;;;14.47;10.10;;;5.80;99.90;;;;;;5259097;28;20440;-49
2023/01/06 09:17:40;;;;;;;31.37;10.30;;;5.90;99.90;;;;;;5258547;28;20462;-51
2023/01/06 09:20:11;;;;;;;21.73;11.30;;;5.80;99.90;;;;;;5256387;28;20481;-50
2023/01/06 09:22:41;;;;;;;27.23;11.30;;;5.90;99.90;;;;;;5257998;28;20871;-50
2023/01/06 09:25:12;;;;;;;17.77;10.83;;;6.00;99.90;;;;;;5261954;28;20580;-52
2023/01/06 09:27:42;;;;;;;17.40;10.47;;;6.10;99.90;;;;;;5242678;28;20267;-51
2023/01/06 09:30:13;;;;;;;15.73;10.90;;;6.10;99.90;;;;;;5260407;28;20182;-51
2023/01/06 09:32:44;;;;;;;28.77;10.27;;;6.30;99.90;;;;;;5259225;28;20500;-50
2023/01/06 09:35:14;;;;;;;18.17;11.47;;;6.20;99.90;;;;;;5256574;28;20234;-52
2023/01/06 09:37:45;;;;;;;20.93;11.60;;;6.30;99.90;;;;;;5263518;28;20190;-51
2023/01/06 09:40:25;;;;;;;21.07;10.20;;;6.40;99.90;;;;;;5264672;28;20257;-51
2023/01/06 09:43:15;;;;;;;19.97;10.43;;;6.30;99.90;;;;;;5255314;28;20291;-51
2023/01/06 09:45:51;;;;;;;21.83;12.20;;;6.50;99.90;;;;;;5255432;28;21638;-51
2023/01/06 09:48:30;;;;;;;17.27;11.30;;;6.50;99.90;;;;;;5255640;28;20588;-50
2023/01/06 09:51:04;;;;;;;26.50;12.70;;;6.50;99.90;;;;;;5277475;27;20436;-52
2023/01/06 09:53:41;;;;;;;25.13;12.67;;;6.50;99.90;;;;;;5255712;28;20443;-51
2023/01/06 09:56:17;;;;;;;22.87;13.07;;;6.50;99.90;;;;;;5254454;28;20976;-51
2023/01/06 09:59:20;;;;;;;17.53;12.87;;;6.50;99.90;;;;;;5263490;28;20470;-49
2023/01/06 10:01:52;;;;;;;34.63;16.17;;;6.60;99.90;;;;;;5260190;28;20948;-50
2023/01/06 10:04:26;;;;;;;30.53;13.43;;;6.70;99.90;;;;;;5241853;28;20477;-49
2023/01/06 10:07:06;;;;;;;28.40;13.67;;;6.80;99.90;;;;;;5258487;28;20427;-51
2023/01/06 10:10:12;;;;;;;22.17;13.53;;;6.90;99.90;;;;;;5260683;28;20516;-49
2023/01/06 10:13:08;;;;;;;31.67;15.17;;;7.00;99.90;;;;;;5241577;28;21078;-49
2023/01/06 10:15:55;;;;;;;20.60;11.57;;;7.20;99.90;;;;;;5258409;28;20432;-50
2023/01/06 10:18:48;;;;;;;19.30;11.63;;;7.20;99.90;;;;;;5258498;28;20555;-50
2023/01/06 10:21:39;;;;;;;24.00;12.57;;;7.40;99.90;;;;;;5259771;28;20440;-50
2023/01/06 10:24:15;;;;;;;40.57;21.60;;;7.40;99.90;;;;;;5254041;28;21028;-49
2023/01/06 10:27:25;;;;;;;26.90;12.97;;;7.60;99.90;;;;;;5276307;27;20432;-51
2023/01/06 10:29:58;;;;;;;15.93;11.57;;;7.60;99.90;;;;;;5259130;28;20432;-49
2023/01/06 10:32:32;;;;;;;26.00;14.20;;;7.70;99.90;;;;;;5261247;28;20944;-50
2023/01/06 10:35:12;;;;;;;22.50;12.67;;;7.90;99.90;;;;;;5260278;28;20418;-51
2023/01/06 10:37:46;;;;;;;21.13;12.40;;;7.90;99.90;;;;;;5253771;28;20451;-50
2023/01/06 10:40:21;;;;;;;20.13;13.00;;;7.90;99.90;;;;;;5242708;28;21124;-50
2023/01/06 10:43:13;;;;;;;13.27;10.67;;;8.00;99.90;;;;;;5258514;28;20486;-50
2023/01/06 10:45:46;;;;;;;23.47;14.00;;;8.00;99.90;;;;;;5245362;28;20981;-51
2023/01/06 10:48:19;;;;;;;28.43;15.83;;;8.10;99.90;;;;;;5257190;28;20474;-50
2023/01/06 10:50:50;;;;;;;28.90;18.03;;;8.30;99.90;;;;;;5252861;28;20458;-51
2023/01/06 10:53:21;;;;;;;21.33;12.73;;;8.30;99.90;;;;;;5242290;28;20572;-51
2023/01/06 10:55:57;;;;;;;23.27;12.37;;;8.40;99.90;;;;;;5260213;28;20248;-52
2023/01/06 10:58:46;;;;;;;24.43;10.30;;;8.40;99.90;;;;;;5257923;28;20653;-51
2023/01/06 11:01:23;;;;;;;21.40;10.90;;;8.40;99.90;;;;;;5255058;28;20445;-50
2023/01/06 11:04:10;;;;;;;20.90;11.90;;;8.40;99.90;;;;;;5257569;28;20518;-50
2023/01/06 11:06:53;;;;;;;11.80;8.73;;;8.50;99.90;;;;;;5260764;28;20423;-50
2023/01/06 11:09:32;;;;;;;11.60;9.03;;;8.40;99.90;;;;;;5258970;28;20563;-51
2023/01/06 11:12:30;;;;;;;14.90;10.07;;;8.60;99.90;;;;;;5260221;28;20447;-50
2023/01/06 11:15:06;;;;;;;22.43;9.97;;;8.50;99.90;;;;;;5255759;28;20443;-51
2023/01/06 11:17:37;;;;;;;16.80;8.27;;;8.60;99.90;;;;;;5249706;28;21014;-51
2023/01/06 11:20:27;;;;;;;18.33;10.27;;;8.60;99.90;;;;;;5253610;28;20538;-50
2023/01/06 11:23:19;;;;;;;13.30;8.77;;;8.50;99.90;;;;;;5252552;28;20216;-50
2023/01/06 11:26:26;;;;;;;18.17;9.00;;;8.50;99.90;;;;;;5252790;28;20429;-50
2023/01/06 11:29:17;;;;;;;16.37;8.83;;;8.60;99.90;;;;;;5194001;28;20470;-51
2023/01/06 11:31:49;;;;;;;11.50;8.87;;;8.50;99.90;;;;;;5254641;28;20448;-51
2023/01/06 11:34:23;;;;;;;17.00;7.70;;;8.50;99.90;;;;;;5254669;28;20447;-50
2023/01/06 11:36:55;;;;;;;20.13;10.30;;;8.50;99.90;;;;;;5242921;28;20445;-51
2023/01/06 11:39:31;;;;;;;16.20;8.97;;;8.50;99.90;;;;;;5255487;28;20462;-50
2023/01/06 11:42:08;;;;;;;17.53;10.23;;;8.40;99.90;;;;;;5257952;28;20526;-51
2023/01/06 11:44:40;;;;;;;18.53;11.50;;;8.40;99.90;;;;;;5249835;28;20435;-50
2023/01/06 11:47:21;;;;;;;14.83;9.10;;;8.50;99.90;;;;;;5256393;28;20444;-50
2023/01/06 11:49:59;;;;;;;12.53;8.43;;;8.50;99.90;;;;;;5237057;28;20428;-51
2023/01/06 11:52:32;;;;;;;15.20;9.77;;;8.50;99.90;;;;;;5250969;28;20439;-51
2023/01/06 11:55:05;;;;;;;14.80;9.63;;;8.40;99.90;;;;;;5229003;28;20524;-49
2023/01/06 11:58:15;;;;;;;12.60;8.63;;;8.50;99.90;;;;;;5246195;28;20435;-52
2023/01/06 12:01:06;;;;;;;10.43;7.57;;;8.60;99.90;;;;;;5249901;28;20451;-53
2023/01/06 12:03:40;;;;;;;15.27;8.23;;;8.50;99.90;;;;;;5252538;28;20499;-53
2023/01/06 12:06:20;;;;;;;14.13;8.30;;;8.60;99.90;;;;;;5253903;28;20537;-52
2023/01/06 12:09:09;;;;;;;16.43;8.60;;;8.70;99.90;;;;;;5251869;28;20853;-50
2023/01/06 12:11:49;;;;;;;7.93;7.03;;;8.70;99.90;;;;;;5254553;28;20448;-50
2023/01/06 12:14:27;;;;;;;13.30;7.53;;;8.70;99.90;;;;;;5250841;28;20432;-52
2023/01/06 12:17:17;;;;;;;20.97;7.73;;;8.80;99.90;;;;;;5254503;28;20432;-51
2023/01/06 12:19:58;;;;;;;9.80;7.40;;;8.80;99.90;;;;;;5252357;28;20832;-53
2023/01/06 12:22:52;;;;;;;10.77;8.27;;;8.80;99.90;;;;;;5251920;28;20464;-52
2023/01/06 12:25:33;;;;;;;12.80;7.77;;;8.90;99.90;;;;;;5257613;28;20816;-51
2023/01/06 12:28:10;;;;;;;10.20;7.77;;;9.00;99.90;;;;;;5259407;28;20960;-50
2023/01/06 12:31:02;;;;;;;9.83;7.57;;;9.10;99.90;;;;;;5254466;28;20431;-53
2023/01/06 12:34:00;;;;;;;9.30;6.80;;;9.10;99.90;;;;;;5258639;28;20989;-52
2023/01/06 12:36:37;;;;;;;20.23;8.00;;;9.10;99.90;;;;;;5254977;28;20437;-49
2023/01/06 12:39:20;;;;;;;10.07;7.07;;;9.10;99.90;;;;;;5262361;28;20470;-52
2023/01/06 12:41:59;;;;;;;6.73;5.90;;;9.00;99.90;;;;;;5259672;28;20474;-53
2023/01/06 12:44:48;;;;;;;9.40;6.93;;;9.20;99.90;;;;;;5280365;27;20431;-53
2023/01/06 12:47:22;;;;;;;6.70;6.10;;;9.10;99.90;;;;;;5266648;28;20526;-52
2023/01/06 12:50:16;;;;;;;9.03;6.40;;;9.10;99.90;;;;;;5265547;28;20431;-53
2023/01/06 12:52:54;;;;;;;10.20;6.10;;;9.20;99.90;;;;;;5264379;28;20535;-51
2023/01/06 12:55:45;;;;;;;11.40;6.87;;;9.10;99.90;;;;;;5257963;28;20448;-54
2023/01/06 12:58:27;;;;;;;6.80;5.60;;;9.20;99.90;;;;;;5257048;28;20518;-52
2023/01/06 13:01:31;;;;;;;9.40;6.10;;;9.20;99.90;;;;;;5257859;28;21233;-50
2023/01/06 13:04:10;;;;;;;6.40;5.10;;;9.30;99.90;;;;;;5250094;28;20461;-53
2023/01/06 13:07:04;;;;;;;5.70;5.13;;;9.30;99.90;;;;;;5252102;28;20436;-51
2023/01/06 13:09:51;;;;;;;11.60;5.93;;;9.30;99.90;;;;;;5258936;28;20516;-52
2023/01/06 13:12:52;;;;;;;5.03;4.47;;;9.30;99.90;;;;;;5256747;28;20432;-52
2023/01/06 13:15:29;;;;;;;6.47;5.20;;;9.40;99.90;;;;;;5253558;28;21116;-51
2023/01/06 13:18:30;;;;;;;5.63;5.00;;;9.30;99.90;;;;;;5264955;28;20447;-52
2023/01/06 13:21:09;;;;;;;8.87;4.27;;;9.40;99.90;;;;;;5262525;28;20415;-51
2023/01/06 13:23:55;;;;;;;4.70;4.03;;;9.50;99.90;;;;;;5264343;28;20463;-51
2023/01/06 13:26:34;;;;;;;5.57;4.00;;;9.40;99.90;;;;;;5249682;28;20520;-53
2023/01/06 13:29:05;;;;;;;6.60;3.80;;;9.40;99.90;;;;;;5252979;28;20447;-50
2023/01/06 13:32:06;;;;;;;4.83;3.43;;;9.40;99.90;;;;;;5257859;28;20427;-51
2023/01/06 13:34:51;;;;;;;4.90;3.33;;;9.50;99.90;;;;;;5252725;28;20189;-52
2023/01/06 13:37:41;;;;;;;8.00;4.03;;;9.50;99.90;;;;;;5262789;28;20444;-50